Time;durP1;ratioP1;P1;durP2;ratioP2;P2;SDS_P1;SDS_P2;PMS_P1;PMS_P2;Temp;Humidity;BMP_temperature;BMP_pressure;BME280_temperature;BME280_humidity;BME280_pressure;Samples;Min_cycle;Max_cycle;Signal;HPM_P1;HPM_P2
2021/01/18 00:00:49;;;;;;;54.22;27.77;;;6.90;99.90;;;;;;2104065;28;20437;-76
2021/01/18 00:01:49;;;;;;;48.20;25.48;;;6.90;99.90;;;;;;2104293;28;20390;-77
2021/01/18 00:02:50;;;;;;;50.67;26.48;;;6.90;99.90;;;;;;2102478;28;20063;-76
2021/01/18 00:03:51;;;;;;;56.08;27.20;;;6.90;99.90;;;;;;2103693;28;20032;-78
2021/01/18 00:04:51;;;;;;;48.30;26.88;;;6.90;99.90;;;;;;2103548;28;20028;-77
2021/01/18 00:05:52;;;;;;;51.38;27.67;;;6.90;99.90;;;;;;2104153;28;20028;-76
2021/01/18 00:06:53;;;;;;;46.60;25.55;;;6.90;99.90;;;;;;2103492;28;20109;-77
2021/01/18 00:07:53;;;;;;;47.88;26.70;;;6.90;99.90;;;;;;2104071;28;20478;-77
2021/01/18 00:08:54;;;;;;;48.13;27.27;;;6.90;99.90;;;;;;2109259;28;20055;-76
2021/01/18 00:09:55;;;;;;;44.22;26.02;;;6.90;99.90;;;;;;2110212;28;20437;-77
2021/01/18 00:10:55;;;;;;;47.15;26.38;;;6.90;99.90;;;;;;2103079;28;20431;-76
2021/01/18 00:11:56;;;;;;;52.20;25.90;;;7.00;99.90;;;;;;2104121;28;20099;-76
2021/01/18 00:12:57;;;;;;;52.53;26.45;;;7.00;99.90;;;;;;2103237;28;20077;-76
2021/01/18 00:13:57;;;;;;;49.58;26.08;;;7.00;99.90;;;;;;2103739;28;20028;-77
2021/01/18 00:14:58;;;;;;;42.22;25.38;;;7.00;99.90;;;;;;2104056;28;20024;-76
2021/01/18 00:15:59;;;;;;;41.33;24.67;;;7.00;99.90;;;;;;2104022;28;20486;-76
2021/01/18 00:16:59;;;;;;;55.25;26.10;;;7.00;99.90;;;;;;2106378;28;20030;-76
2021/01/18 00:18:00;;;;;;;54.75;25.15;;;7.00;99.90;;;;;;2109133;28;20028;-76
2021/01/18 00:19:00;;;;;;;49.35;24.13;;;7.00;99.90;;;;;;2104150;28;20024;-78
2021/01/18 00:20:01;;;;;;;43.63;23.63;;;7.00;99.90;;;;;;2104882;28;20036;-77
2021/01/18 00:21:02;;;;;;;51.05;23.42;;;7.00;99.90;;;;;;2105928;28;20487;-76
2021/01/18 00:22:03;;;;;;;46.80;23.67;;;7.00;99.90;;;;;;2111800;28;20027;-76
2021/01/18 00:23:03;;;;;;;45.17;23.08;;;7.00;99.90;;;;;;2110139;28;20035;-77
2021/01/18 00:24:04;;;;;;;44.03;21.88;;;7.00;99.90;;;;;;2113880;28;20471;-78
2021/01/18 00:25:11;;;;;;;45.13;24.13;;;7.00;99.90;;;;;;2107496;28;20028;-77
2021/01/18 00:26:11;;;;;;;38.85;21.30;;;7.00;99.90;;;;;;2105506;28;20471;-78
2021/01/18 00:27:12;;;;;;;47.03;22.52;;;7.00;99.90;;;;;;2109879;28;20023;-75
2021/01/18 00:28:12;;;;;;;46.30;22.17;;;7.00;99.90;;;;;;2110228;28;20800;-76
2021/01/18 00:29:14;;;;;;;33.88;21.25;;;7.00;99.90;;;;;;2112967;28;20034;-78
2021/01/18 00:30:18;;;;;;;43.13;21.05;;;7.00;99.90;;;;;;2105343;28;20622;-78
2021/01/18 00:31:19;;;;;;;40.42;20.85;;;7.00;99.90;;;;;;2105774;28;20016;-77
2021/01/18 00:32:23;;;;;;;41.88;19.73;;;7.00;99.90;;;;;;2105794;28;20463;-75
2021/01/18 00:33:23;;;;;;;36.17;20.17;;;7.10;99.90;;;;;;2105467;28;20020;-78
2021/01/18 00:34:24;;;;;;;38.45;21.17;;;7.00;99.90;;;;;;2105208;28;20036;-76
2021/01/18 00:35:27;;;;;;;46.78;18.85;;;7.10;99.90;;;;;;2105132;28;20111;-78
2021/01/18 00:36:27;;;;;;;37.35;18.33;;;7.00;99.90;;;;;;2104908;28;20460;-77
2021/01/18 00:37:28;;;;;;;39.47;18.50;;;7.00;99.90;;;;;;2107969;28;20024;-78
2021/01/18 00:38:29;;;;;;;33.83;19.83;;;7.00;99.90;;;;;;2104366;28;20115;-77
2021/01/18 00:39:30;;;;;;;35.20;17.83;;;7.00;99.90;;;;;;2105152;28;20027;-77
2021/01/18 00:40:31;;;;;;;41.45;18.45;;;7.00;99.90;;;;;;2104588;28;20016;-77
2021/01/18 00:41:38;;;;;;;34.65;17.05;;;7.00;99.90;;;;;;2105196;28;20020;-77
2021/01/18 00:42:43;;;;;;;40.05;17.05;;;7.00;99.90;;;;;;2104625;28;20028;-78
2021/01/18 00:43:44;;;;;;;30.48;15.77;;;7.00;99.90;;;;;;2104856;28;20020;-77
2021/01/18 00:44:45;;;;;;;39.80;17.85;;;7.00;99.90;;;;;;2104988;28;20206;-77
2021/01/18 00:45:46;;;;;;;37.17;16.45;;;7.00;99.90;;;;;;2105002;28;20016;-77
2021/01/18 00:46:47;;;;;;;34.15;16.77;;;7.00;99.90;;;;;;2105005;28;20012;-76
2021/01/18 00:47:50;;;;;;;31.80;14.85;;;7.00;99.90;;;;;;2106482;28;20073;-78
2021/01/18 00:48:51;;;;;;;28.30;13.88;;;7.00;99.90;;;;;;2104744;28;20031;-77
2021/01/18 00:49:51;;;;;;;29.15;14.07;;;6.90;99.90;;;;;;2105704;28;20063;-76
2021/01/18 00:50:52;;;;;;;30.02;12.93;;;7.00;99.90;;;;;;2110622;28;20086;-76
2021/01/18 00:51:53;;;;;;;26.15;12.88;;;6.90;99.90;;;;;;2113950;28;20069;-76
2021/01/18 00:52:54;;;;;;;26.42;12.55;;;6.90;99.90;;;;;;2104864;28;20778;-77
2021/01/18 00:53:55;;;;;;;24.98;11.82;;;6.90;99.90;;;;;;2108208;28;20034;-76
2021/01/18 00:54:56;;;;;;;24.98;11.88;;;6.90;99.90;;;;;;2113610;28;20466;-77
2021/01/18 00:55:56;;;;;;;24.83;11.35;;;6.90;99.90;;;;;;2113299;28;20023;-77
2021/01/18 00:56:57;;;;;;;23.10;12.85;;;6.90;99.90;;;;;;2110312;28;20028;-77
2021/01/18 00:57:58;;;;;;;24.27;10.80;;;6.90;99.90;;;;;;2105599;28;20030;-77
2021/01/18 00:58:58;;;;;;;25.02;11.73;;;6.90;99.90;;;;;;2104955;28;20077;-77
2021/01/18 00:59:59;;;;;;;19.55;11.00;;;6.90;99.90;;;;;;2104842;28;20024;-78
2021/01/18 01:01:00;;;;;;;31.33;12.88;;;6.90;99.90;;;;;;2104427;28;20035;-78
2021/01/18 01:02:00;;;;;;;29.08;13.77;;;6.90;99.90;;;;;;2104523;28;20027;-76
2021/01/18 01:03:01;;;;;;;31.33;10.98;;;6.90;99.90;;;;;;2104131;28;20034;-77
2021/01/18 01:04:02;;;;;;;21.55;11.88;;;6.90;99.90;;;;;;2103866;28;20123;-77
2021/01/18 01:05:03;;;;;;;23.05;10.45;;;6.90;99.90;;;;;;2104194;28;20077;-77
2021/01/18 01:06:04;;;;;;;19.38;10.68;;;6.90;99.90;;;;;;2104407;27;20024;-77
2021/01/18 01:07:05;;;;;;;26.40;11.10;;;6.90;99.90;;;;;;2106633;28;20147;-75
2021/01/18 01:08:05;;;;;;;23.17;12.30;;;6.90;99.90;;;;;;2112280;28;20062;-76
2021/01/18 01:09:06;;;;;;;19.35;11.05;;;6.90;99.90;;;;;;2112223;28;20035;-77
2021/01/18 01:10:12;;;;;;;25.10;11.55;;;6.90;99.90;;;;;;2110031;28;20048;-76
2021/01/18 01:11:12;;;;;;;24.38;12.02;;;6.90;99.90;;;;;;2105642;28;20032;-78
2021/01/18 01:12:13;;;;;;;29.13;12.88;;;6.90;99.90;;;;;;2105277;28;20020;-77
2021/01/18 01:13:14;;;;;;;18.02;11.80;;;6.90;99.90;;;;;;2105208;28;20561;-76
2021/01/18 01:14:15;;;;;;;25.45;12.10;;;7.00;99.90;;;;;;2104420;28;20028;-76
2021/01/18 01:15:15;;;;;;;27.55;12.82;;;7.00;99.90;;;;;;2105679;28;20016;-76
2021/01/18 01:16:16;;;;;;;22.05;12.27;;;7.00;99.90;;;;;;2113267;28;20024;-76
2021/01/18 01:17:17;;;;;;;23.35;13.35;;;7.00;99.90;;;;;;2105241;28;20034;-78
2021/01/18 01:18:17;;;;;;;32.97;14.85;;;7.00;99.90;;;;;;2104290;28;20051;-77
2021/01/18 01:19:18;;;;;;;28.13;13.23;;;7.00;99.90;;;;;;2095857;28;20062;-77
2021/01/18 01:20:20;;;;;;;25.65;13.68;;;7.00;99.90;;;;;;2104657;28;20036;-78
2021/01/18 01:21:20;;;;;;;24.77;13.00;;;7.00;99.90;;;;;;2106105;28;20024;-77
2021/01/18 01:22:21;;;;;;;27.27;13.85;;;7.00;99.90;;;;;;2113543;28;20028;-77
2021/01/18 01:23:22;;;;;;;29.50;13.95;;;7.00;99.90;;;;;;2110357;28;20039;-78
2021/01/18 01:24:22;;;;;;;23.52;14.80;;;7.00;99.90;;;;;;2112421;28;20100;-77
2021/01/18 01:25:26;;;;;;;33.13;14.68;;;7.00;99.90;;;;;;2098034;28;20028;-78
2021/01/18 01:26:26;;;;;;;32.28;14.88;;;7.00;99.90;;;;;;2108925;28;20035;-78
2021/01/18 01:27:27;;;;;;;32.53;15.07;;;7.00;99.90;;;;;;2104783;28;20058;-77
2021/01/18 01:28:28;;;;;;;29.45;14.20;;;7.00;99.90;;;;;;2104530;28;20120;-77
2021/01/18 01:29:28;;;;;;;29.13;14.98;;;7.00;99.90;;;;;;2104631;28;20383;-78
2021/01/18 01:30:29;;;;;;;28.05;13.73;;;7.00;99.90;;;;;;2104760;28;20717;-76
2021/01/18 01:31:29;;;;;;;22.67;14.55;;;7.00;99.90;;;;;;2105582;28;20108;-77
2021/01/18 01:32:30;;;;;;;28.05;15.35;;;7.00;99.90;;;;;;2104700;28;20020;-77
2021/01/18 01:33:30;;;;;;;28.17;13.45;;;7.10;99.90;;;;;;2104505;28;20016;-77
2021/01/18 01:34:33;;;;;;;28.13;14.48;;;7.00;99.90;;;;;;2104781;28;20028;-77
2021/01/18 01:35:33;;;;;;;31.83;14.32;;;7.00;99.90;;;;;;2108312;28;20089;-77
2021/01/18 01:36:41;;;;;;;25.77;13.00;;;7.00;99.90;;;;;;2105609;28;20126;-77
2021/01/18 01:37:42;;;;;;;25.13;13.45;;;7.00;99.90;;;;;;2099927;28;20021;-77
2021/01/18 01:38:42;;;;;;;24.20;13.05;;;7.00;99.90;;;;;;2112702;28;20034;-79
2021/01/18 01:39:43;;;;;;;31.95;13.68;;;7.00;99.90;;;;;;2113556;28;20016;-77
2021/01/18 01:40:43;;;;;;;27.55;13.73;;;7.00;99.90;;;;;;2113319;28;20065;-76
2021/01/18 01:41:44;;;;;;;25.55;13.13;;;7.00;99.90;;;;;;2113147;28;20065;-77
2021/01/18 01:42:45;;;;;;;28.13;12.82;;;7.00;99.90;;;;;;2112834;28;20019;-76
2021/01/18 01:43:46;;;;;;;21.20;12.07;;;7.00;99.90;;;;;;2111491;28;20020;-77
2021/01/18 01:44:47;;;;;;;24.50;12.45;;;7.00;99.90;;;;;;2104675;28;20073;-77
2021/01/18 01:45:47;;;;;;;28.75;13.20;;;7.00;99.90;;;;;;2105032;28;20020;-77
2021/01/18 01:46:48;;;;;;;31.55;13.45;;;7.00;99.90;;;;;;2103594;28;20552;-77
2021/01/18 01:47:56;;;;;;;27.58;13.32;;;6.90;99.90;;;;;;2104476;28;20098;-76
2021/01/18 01:48:57;;;;;;;31.55;14.05;;;6.90;99.90;;;;;;2104074;28;20572;-78
2021/01/18 01:50:00;;;;;;;23.45;12.73;;;6.90;99.90;;;;;;2105257;28;20039;-77
2021/01/18 01:51:01;;;;;;;26.95;13.30;;;6.90;99.90;;;;;;2104720;28;20024;-79
2021/01/18 01:52:03;;;;;;;21.83;12.07;;;6.90;99.90;;;;;;2105484;28;20939;-77
2021/01/18 01:53:39;;;;;;;27.02;13.43;;;6.90;99.90;;;;;;2104906;28;20035;-78
2021/01/18 01:54:43;;;;;;;25.48;13.90;;;6.90;99.90;;;;;;2102874;28;20036;-75
2021/01/18 01:55:43;;;;;;;30.83;14.10;;;6.90;99.90;;;;;;2104192;28;20046;-76
2021/01/18 01:56:45;;;;;;;27.65;13.57;;;6.90;99.90;;;;;;2104069;28;20478;-78
2021/01/18 01:57:46;;;;;;;24.40;13.20;;;6.90;99.90;;;;;;2104473;28;20041;-75
2021/01/18 01:58:49;;;;;;;24.92;12.73;;;6.90;99.90;;;;;;2104383;28;20016;-75
2021/01/18 01:59:51;;;;;;;24.08;13.07;;;6.90;99.90;;;;;;2104776;28;20135;-77
2021/01/18 02:00:53;;;;;;;33.67;13.50;;;6.90;99.90;;;;;;2104928;28;20031;-76
2021/01/18 02:01:55;;;;;;;30.05;13.30;;;6.90;99.90;;;;;;2104955;28;20772;-76
2021/01/18 02:02:55;;;;;;;24.67;12.57;;;6.90;99.90;;;;;;2105196;28;20058;-77
2021/01/18 02:03:58;;;;;;;29.27;13.00;;;6.90;99.90;;;;;;2107167;28;20387;-76
2021/01/18 02:04:59;;;;;;;25.10;12.77;;;6.90;99.90;;;;;;2111967;28;20023;-76
2021/01/18 02:05:59;;;;;;;29.40;13.75;;;6.90;99.90;;;;;;2104970;28;20055;-76
2021/01/18 02:07:28;;;;;;;23.05;12.05;;;6.90;99.90;;;;;;2104419;28;20020;-75
2021/01/18 02:08:29;;;;;;;28.42;13.25;;;6.90;99.90;;;;;;2104501;28;20031;-76
2021/01/18 02:09:29;;;;;;;33.60;13.45;;;6.80;99.90;;;;;;2104818;28;20024;-77
2021/01/18 02:10:31;;;;;;;30.60;12.93;;;6.80;99.90;;;;;;2105011;28;20051;-77
2021/01/18 02:11:32;;;;;;;22.38;13.20;;;6.80;99.90;;;;;;2105298;28;20024;-76
2021/01/18 02:12:33;;;;;;;25.02;12.27;;;6.80;99.90;;;;;;2108532;28;20615;-76
2021/01/18 02:13:57;;;;;;;29.92;13.15;;;6.90;99.90;;;;;;2107318;28;20017;-77
2021/01/18 02:15:07;;;;;;;29.95;13.48;;;6.80;99.90;;;;;;2107241;28;20047;-76
2021/01/18 02:16:38;;;;;;;28.45;12.10;;;6.90;99.90;;;;;;2104197;28;20024;-77
2021/01/18 02:18:03;;;;;;;37.55;13.77;;;6.80;99.90;;;;;;2110696;28;20046;-75
2021/01/18 02:19:41;;;;;;;21.98;11.35;;;6.80;99.90;;;;;;2104299;28;20024;-78
2021/01/18 02:21:15;;;;;;;30.17;12.82;;;6.80;99.90;;;;;;2108482;28;20032;-77
2021/01/18 02:22:48;;;;;;;25.10;12.38;;;6.80;99.90;;;;;;2110303;28;20107;-78
2021/01/18 02:24:13;;;;;;;31.27;13.90;;;6.80;99.90;;;;;;2101379;28;20028;-77
2021/01/18 02:25:33;;;;;;;30.30;13.52;;;6.70;99.90;;;;;;2112321;28;20035;-76
2021/01/18 02:27:16;;;;;;;25.33;13.10;;;6.70;99.90;;;;;;2107920;28;20016;-78
2021/01/18 02:29:01;;;;;;;30.35;13.73;;;6.70;99.90;;;;;;2103856;28;20059;-77
2021/01/18 02:30:10;;;;;;;28.08;13.63;;;6.60;99.90;;;;;;2092006;28;20574;-78
2021/01/18 02:31:40;;;;;;;28.48;15.05;;;6.70;99.90;;;;;;2103310;28;20047;-78
2021/01/18 02:32:59;;;;;;;30.02;14.95;;;6.70;99.90;;;;;;2106549;28;20609;-77
2021/01/18 02:34:28;;;;;;;29.90;15.43;;;6.70;99.90;;;;;;2112921;28;20395;-76
2021/01/18 02:36:03;;;;;;;26.80;16.02;;;6.70;99.90;;;;;;2104944;28;20069;-76
2021/01/18 02:37:28;;;;;;;33.85;17.60;;;6.70;99.90;;;;;;2104330;28;20077;-76
2021/01/18 02:38:54;;;;;;;38.63;17.50;;;6.70;99.90;;;;;;2104487;28;20028;-76
2021/01/18 02:40:03;;;;;;;33.53;17.98;;;6.70;99.90;;;;;;2104369;28;20028;-76
2021/01/18 02:41:29;;;;;;;34.00;18.73;;;6.70;99.90;;;;;;2104553;28;20024;-76
2021/01/18 02:42:32;;;;;;;30.35;17.15;;;6.70;99.90;;;;;;2104029;28;20028;-77
2021/01/18 02:43:41;;;;;;;35.17;17.95;;;6.70;99.90;;;;;;2112440;28;20481;-78
2021/01/18 02:44:44;;;;;;;34.17;17.80;;;6.70;99.90;;;;;;2105665;28;20062;-78
2021/01/18 02:45:47;;;;;;;26.77;17.25;;;6.70;99.90;;;;;;2104610;28;20474;-77
2021/01/18 02:46:49;;;;;;;25.77;16.38;;;6.80;99.90;;;;;;2104057;28;20016;-77
2021/01/18 02:47:50;;;;;;;31.92;17.92;;;6.80;99.90;;;;;;2111169;28;20583;-77
2021/01/18 02:48:52;;;;;;;32.67;15.82;;;6.80;99.90;;;;;;2112728;28;20084;-77
2021/01/18 02:49:55;;;;;;;32.25;15.40;;;6.80;99.90;;;;;;2112982;28;20020;-77
2021/01/18 02:51:01;;;;;;;32.20;15.30;;;6.80;99.90;;;;;;2112856;28;20102;-76
2021/01/18 02:52:09;;;;;;;26.98;15.52;;;6.80;99.90;;;;;;2111888;28;20034;-77
2021/01/18 02:53:10;;;;;;;27.55;15.32;;;6.80;99.90;;;;;;2110130;28;20114;-76
2021/01/18 02:54:11;;;;;;;28.30;14.55;;;6.80;99.90;;;;;;2107692;28;20032;-76
2021/01/18 02:55:13;;;;;;;26.40;14.48;;;6.80;99.90;;;;;;2104079;28;20032;-77
2021/01/18 02:56:13;;;;;;;27.80;14.98;;;6.80;99.90;;;;;;2104627;28;20093;-76
2021/01/18 02:57:16;;;;;;;30.50;14.35;;;6.80;99.90;;;;;;2106467;28;20482;-77
2021/01/18 02:58:22;;;;;;;35.40;14.13;;;6.80;99.90;;;;;;2103337;28;20410;-76
2021/01/18 02:59:22;;;;;;;30.70;14.07;;;6.80;99.90;;;;;;2111616;28;20035;-77
2021/01/18 03:00:30;;;;;;;30.52;13.40;;;6.80;99.90;;;;;;2111715;28;20607;-77
2021/01/18 03:01:44;;;;;;;26.40;13.75;;;6.90;99.90;;;;;;2113574;28;20103;-76
2021/01/18 03:02:53;;;;;;;19.50;11.80;;;6.80;99.90;;;;;;2110717;28;20040;-76
2021/01/18 03:04:04;;;;;;;28.63;13.05;;;6.80;99.90;;;;;;2110271;28;20122;-77
2021/01/18 03:05:24;;;;;;;19.92;12.30;;;6.80;99.90;;;;;;2107204;28;20023;-76
2021/01/18 03:06:52;;;;;;;30.73;12.57;;;6.80;99.90;;;;;;2106372;28;20127;-77
2021/01/18 03:07:59;;;;;;;22.73;12.35;;;6.70;99.90;;;;;;2105098;28;20048;-76
2021/01/18 03:09:07;;;;;;;23.38;12.65;;;6.70;99.90;;;;;;2105765;28;20020;-76
2021/01/18 03:10:33;;;;;;;21.13;13.10;;;6.70;99.90;;;;;;2105666;28;20028;-77
2021/01/18 03:11:38;;;;;;;23.90;13.30;;;6.70;99.90;;;;;;2088797;28;20041;-78
2021/01/18 03:13:05;;;;;;;22.58;13.98;;;6.70;99.90;;;;;;2104097;28;20020;-76
2021/01/18 03:14:16;;;;;;;28.45;14.50;;;6.70;99.90;;;;;;2100620;28;20036;-77
2021/01/18 03:15:19;;;;;;;24.55;14.40;;;6.60;99.90;;;;;;2105429;28;20043;-78
2021/01/18 03:16:23;;;;;;;24.05;15.48;;;6.60;99.90;;;;;;2105538;28;20020;-76
2021/01/18 03:17:28;;;;;;;28.50;15.00;;;6.60;99.90;;;;;;2105235;28;20024;-76
2021/01/18 03:18:32;;;;;;;31.35;15.88;;;6.70;99.90;;;;;;2105174;28;20016;-76
2021/01/18 03:19:44;;;;;;;29.25;16.33;;;6.60;99.90;;;;;;2105544;28;20397;-76
2021/01/18 03:20:45;;;;;;;29.92;15.77;;;6.70;99.90;;;;;;2105883;28;20471;-76
2021/01/18 03:21:46;;;;;;;30.20;17.85;;;6.60;99.90;;;;;;2110889;28;20535;-76
2021/01/18 03:22:47;;;;;;;29.15;17.48;;;6.70;99.90;;;;;;2113477;28;20107;-76
2021/01/18 03:23:48;;;;;;;25.58;15.90;;;6.70;99.90;;;;;;2109334;28;20469;-76
2021/01/18 03:24:48;;;;;;;35.65;16.90;;;6.70;99.90;;;;;;2109883;28;20111;-76
2021/01/18 03:25:54;;;;;;;29.40;16.70;;;6.70;99.90;;;;;;2105263;28;20055;-76
2021/01/18 03:26:55;;;;;;;28.88;17.60;;;6.70;99.90;;;;;;2105295;28;20082;-76
2021/01/18 03:27:59;;;;;;;27.75;18.33;;;6.70;99.90;;;;;;2105460;28;20040;-76
2021/01/18 03:28:59;;;;;;;29.67;16.88;;;6.70;99.90;;;;;;2105503;28;20050;-76
2021/01/18 03:30:00;;;;;;;27.30;16.25;;;6.70;99.90;;;;;;2105373;28;20048;-76
2021/01/18 03:31:01;;;;;;;30.05;18.05;;;6.70;99.90;;;;;;2105078;28;20078;-76
2021/01/18 03:32:01;;;;;;;28.48;16.88;;;6.70;99.90;;;;;;2105127;28;20053;-75
2021/01/18 03:33:02;;;;;;;26.60;17.42;;;6.70;99.90;;;;;;2108604;28;20046;-77
2021/01/18 03:34:03;;;;;;;30.02;16.95;;;6.70;99.90;;;;;;2104721;28;20021;-77
2021/01/18 03:35:04;;;;;;;31.23;17.77;;;6.70;99.90;;;;;;2104643;28;20020;-77
2021/01/18 03:36:05;;;;;;;29.60;16.98;;;6.70;99.90;;;;;;2104615;28;20035;-79
2021/01/18 03:37:05;;;;;;;27.50;17.00;;;6.70;99.90;;;;;;2105005;28;20017;-78
2021/01/18 03:38:06;;;;;;;36.58;16.98;;;6.70;99.90;;;;;;2105354;28;20028;-77
2021/01/18 03:39:07;;;;;;;29.38;17.45;;;6.70;99.90;;;;;;2105436;28;20060;-76
2021/01/18 03:40:08;;;;;;;26.33;15.35;;;6.70;99.90;;;;;;2105433;28;20111;-76
2021/01/18 03:41:10;;;;;;;28.45;16.98;;;6.70;99.90;;;;;;2105706;28;20024;-76
2021/01/18 03:42:11;;;;;;;26.85;16.85;;;6.70;99.90;;;;;;2113562;28;20120;-76
2021/01/18 03:43:12;;;;;;;30.85;16.50;;;6.70;99.90;;;;;;2105346;28;20035;-76
2021/01/18 03:44:13;;;;;;;30.48;16.40;;;6.70;99.90;;;;;;2105453;28;20450;-76
2021/01/18 03:45:13;;;;;;;31.42;16.05;;;6.70;99.90;;;;;;2104570;28;20062;-76
2021/01/18 03:46:14;;;;;;;28.00;15.25;;;6.70;99.90;;;;;;2105150;28;20069;-76
2021/01/18 03:47:14;;;;;;;27.73;15.98;;;6.70;99.90;;;;;;2103820;28;20809;-76
2021/01/18 03:48:16;;;;;;;27.75;15.23;;;6.70;99.90;;;;;;2104732;28;20068;-78
2021/01/18 03:49:17;;;;;;;23.30;14.80;;;6.70;99.90;;;;;;2104624;28;20034;-78
2021/01/18 03:50:18;;;;;;;31.10;14.70;;;6.70;99.90;;;;;;2104875;28;20024;-77
2021/01/18 03:51:18;;;;;;;27.20;14.52;;;6.70;99.90;;;;;;2106620;28;20028;-77
2021/01/18 03:52:19;;;;;;;27.98;14.27;;;6.70;99.90;;;;;;2109673;28;20154;-78
2021/01/18 03:53:19;;;;;;;24.58;14.60;;;6.70;99.90;;;;;;2105380;28;20077;-78
2021/01/18 03:54:20;;;;;;;24.10;14.10;;;6.70;99.90;;;;;;2105254;28;20026;-77
2021/01/18 03:55:21;;;;;;;27.15;14.55;;;6.70;99.90;;;;;;2105180;28;20032;-75
2021/01/18 03:56:21;;;;;;;29.48;13.68;;;6.70;99.90;;;;;;2105571;28;20017;-76
2021/01/18 03:57:22;;;;;;;27.02;14.25;;;6.70;99.90;;;;;;2109844;28;20389;-76
2021/01/18 03:58:23;;;;;;;27.88;13.35;;;6.70;99.90;;;;;;2113652;28;20024;-76
2021/01/18 03:59:23;;;;;;;26.77;13.95;;;6.70;99.90;;;;;;2105319;28;20480;-76
2021/01/18 04:00:26;;;;;;;24.50;13.88;;;6.70;99.90;;;;;;2105653;28;20028;-77
2021/01/18 04:01:27;;;;;;;29.13;13.32;;;6.70;99.90;;;;;;2108262;28;20020;-76
2021/01/18 04:02:28;;;;;;;25.92;14.77;;;6.60;99.90;;;;;;2105592;28;20032;-76
2021/01/18 04:03:29;;;;;;;26.75;14.30;;;6.70;99.90;;;;;;2104289;28;20497;-76
2021/01/18 04:04:29;;;;;;;22.13;12.82;;;6.60;99.90;;;;;;2104020;28;20196;-76
2021/01/18 04:05:30;;;;;;;21.83;11.65;;;6.60;99.90;;;;;;2103641;28;20027;-78
2021/01/18 04:06:39;;;;;;;27.77;13.32;;;6.60;99.90;;;;;;2104054;28;20028;-77
2021/01/18 04:07:44;;;;;;;23.45;12.60;;;6.60;99.90;;;;;;2103426;28;20026;-77
2021/01/18 04:08:44;;;;;;;29.35;12.85;;;6.60;99.90;;;;;;2104178;28;20526;-77
2021/01/18 04:09:45;;;;;;;21.23;12.30;;;6.60;99.90;;;;;;2104119;28;20020;-78
2021/01/18 04:10:45;;;;;;;22.58;11.98;;;6.60;99.90;;;;;;2104107;28;20078;-77
2021/01/18 04:11:46;;;;;;;20.45;12.40;;;6.60;99.90;;;;;;2105470;28;20032;-77
2021/01/18 04:12:48;;;;;;;24.85;12.25;;;6.60;99.90;;;;;;2104617;28;20043;-77
2021/01/18 04:13:48;;;;;;;20.77;12.52;;;6.60;99.90;;;;;;2103908;28;20013;-77
2021/01/18 04:14:51;;;;;;;22.40;12.63;;;6.60;99.90;;;;;;2103788;28;20646;-78
2021/01/18 04:15:52;;;;;;;23.05;13.02;;;6.60;99.90;;;;;;2103287;28;20031;-76
2021/01/18 04:16:53;;;;;;;20.88;11.70;;;6.60;99.90;;;;;;2103432;28;20498;-77
2021/01/18 04:17:56;;;;;;;29.25;12.75;;;6.60;99.90;;;;;;2104209;28;20085;-78
2021/01/18 04:18:57;;;;;;;24.52;12.40;;;6.60;99.90;;;;;;2111714;28;20031;-76
2021/01/18 04:19:57;;;;;;;23.80;11.80;;;6.60;99.90;;;;;;2107457;28;20062;-77
2021/01/18 04:20:58;;;;;;;27.10;12.45;;;6.60;99.90;;;;;;2111927;28;20180;-76
2021/01/18 04:21:58;;;;;;;20.00;12.10;;;6.60;99.90;;;;;;2111180;28;20482;-75
2021/01/18 04:23:04;;;;;;;25.05;12.63;;;6.60;99.90;;;;;;2110099;28;20020;-75
2021/01/18 04:24:05;;;;;;;23.05;12.73;;;6.60;99.90;;;;;;2110533;28;20027;-77
2021/01/18 04:25:06;;;;;;;22.63;11.85;;;6.60;99.90;;;;;;2105124;28;20463;-76
2021/01/18 04:26:07;;;;;;;19.63;12.48;;;6.60;99.90;;;;;;2104968;28;20024;-78
2021/01/18 04:27:08;;;;;;;21.02;13.77;;;6.60;99.90;;;;;;2112206;28;20019;-77
2021/01/18 04:28:09;;;;;;;21.70;12.75;;;6.60;99.90;;;;;;2107144;28;20099;-77
2021/01/18 04:29:09;;;;;;;24.02;13.52;;;6.60;99.90;;;;;;2103513;28;20028;-77
2021/01/18 04:30:11;;;;;;;29.65;13.95;;;6.60;99.90;;;;;;2094997;28;20814;-77
2021/01/18 04:31:11;;;;;;;25.63;14.25;;;6.60;99.90;;;;;;2106438;28;20031;-78
2021/01/18 04:32:12;;;;;;;22.67;14.15;;;6.60;99.90;;;;;;2102903;28;20470;-77
2021/01/18 04:33:12;;;;;;;25.20;13.85;;;6.60;99.90;;;;;;2104433;28;20095;-75
2021/01/18 04:34:13;;;;;;;25.45;13.82;;;6.60;99.90;;;;;;2110479;28;20049;-76
2021/01/18 04:35:13;;;;;;;23.80;14.02;;;6.60;99.90;;;;;;2103425;28;20020;-75
2021/01/18 04:36:14;;;;;;;33.47;14.50;;;6.60;99.90;;;;;;2103270;28;20024;-76
2021/01/18 04:37:15;;;;;;;29.30;15.00;;;6.60;99.90;;;;;;2103212;28;20027;-77
2021/01/18 04:38:15;;;;;;;32.30;14.95;;;6.60;99.90;;;;;;2102870;28;20027;-76
2021/01/18 04:39:16;;;;;;;25.52;14.98;;;6.60;99.90;;;;;;2106306;28;20023;-78
2021/01/18 04:40:19;;;;;;;29.73;15.70;;;6.60;99.90;;;;;;2112659;28;20072;-77
2021/01/18 04:41:20;;;;;;;23.35;14.57;;;6.60;99.90;;;;;;2106389;28;20114;-76
2021/01/18 04:42:21;;;;;;;28.40;16.63;;;6.60;99.90;;;;;;2110282;28;20070;-77
2021/01/18 04:43:22;;;;;;;23.02;15.60;;;6.70;99.90;;;;;;2103232;28;20024;-75
2021/01/18 04:44:22;;;;;;;30.77;15.95;;;6.70;99.90;;;;;;2094847;28;20501;-77
2021/01/18 04:45:25;;;;;;;31.08;17.40;;;6.70;99.90;;;;;;2103366;28;20036;-76
2021/01/18 04:46:30;;;;;;;24.75;16.17;;;6.70;99.90;;;;;;2103731;28;20073;-76
2021/01/18 04:47:35;;;;;;;23.20;16.00;;;6.70;99.90;;;;;;2102844;28;20544;-76
2021/01/18 04:48:38;;;;;;;32.90;16.63;;;6.70;99.90;;;;;;2103953;28;20024;-77
2021/01/18 04:49:40;;;;;;;33.88;17.95;;;6.80;99.90;;;;;;2103739;28;20024;-77
2021/01/18 04:50:41;;;;;;;29.00;17.90;;;6.80;99.90;;;;;;2107314;28;20514;-77
2021/01/18 04:51:55;;;;;;;30.58;18.95;;;6.70;99.90;;;;;;2108330;28;20032;-76
2021/01/18 04:53:00;;;;;;;29.90;18.83;;;6.80;99.90;;;;;;2103509;28;20058;-77
2021/01/18 04:54:26;;;;;;;30.98;20.58;;;6.80;99.90;;;;;;2103200;28;20048;-76
2021/01/18 04:55:32;;;;;;;31.20;20.42;;;6.80;99.90;;;;;;2103022;28;20378;-77
2021/01/18 04:57:10;;;;;;;33.05;20.20;;;6.80;99.90;;;;;;2103372;28;20111;-75
2021/01/18 04:58:18;;;;;;;29.48;20.38;;;6.70;99.90;;;;;;2099368;28;20035;-77
2021/01/18 04:59:20;;;;;;;32.60;21.67;;;6.80;99.90;;;;;;2103373;28;20032;-77
2021/01/18 05:00:33;;;;;;;32.85;22.08;;;6.70;99.90;;;;;;2103609;28;20024;-77
2021/01/18 05:01:40;;;;;;;38.67;22.20;;;6.70;99.90;;;;;;2103770;28;20052;-76
2021/01/18 05:02:52;;;;;;;36.75;21.25;;;6.70;99.90;;;;;;2111943;28;20023;-77
2021/01/18 05:04:03;;;;;;;31.45;20.52;;;6.70;99.90;;;;;;2106749;28;20092;-77
2021/01/18 05:05:21;;;;;;;31.65;21.83;;;6.70;99.90;;;;;;2103301;28;20028;-78
2021/01/18 05:06:42;;;;;;;35.42;21.60;;;6.70;99.90;;;;;;2104875;28;20528;-77
2021/01/18 05:08:20;;;;;;;35.53;21.13;;;6.70;99.90;;;;;;2105162;28;20028;-76
2021/01/18 05:09:27;;;;;;;33.92;21.23;;;6.60;99.90;;;;;;2105339;28;20375;-77
2021/01/18 05:10:30;;;;;;;32.50;20.02;;;6.60;99.90;;;;;;2104701;28;20054;-76
2021/01/18 05:11:33;;;;;;;26.02;20.23;;;6.60;99.90;;;;;;2096566;28;20021;-76
2021/01/18 05:12:41;;;;;;;35.33;21.58;;;6.60;99.90;;;;;;2103481;28;20137;-77
2021/01/18 05:13:43;;;;;;;38.78;21.42;;;6.70;99.90;;;;;;2099668;28;20025;-75
2021/01/18 05:14:44;;;;;;;32.22;21.13;;;6.70;99.90;;;;;;2105377;28;20035;-76
2021/01/18 05:15:48;;;;;;;31.88;19.92;;;6.70;99.90;;;;;;2113539;28;20051;-76
2021/01/18 05:16:53;;;;;;;32.30;21.27;;;6.70;99.90;;;;;;2113178;28;20053;-76
2021/01/18 05:17:59;;;;;;;33.50;20.88;;;6.70;99.90;;;;;;2113127;28;20027;-77
2021/01/18 05:19:11;;;;;;;35.95;21.88;;;6.60;99.90;;;;;;2113834;28;20043;-77
2021/01/18 05:20:14;;;;;;;32.38;21.35;;;6.60;99.90;;;;;;2112607;28;20031;-76
2021/01/18 05:21:17;;;;;;;35.05;21.67;;;6.60;99.90;;;;;;2104460;28;20028;-76
2021/01/18 05:22:18;;;;;;;32.03;21.17;;;6.60;99.90;;;;;;2104581;28;20022;-76
2021/01/18 05:23:18;;;;;;;35.05;21.33;;;6.60;99.90;;;;;;2110058;28;20086;-78
2021/01/18 05:24:20;;;;;;;31.42;20.38;;;6.70;99.90;;;;;;2113500;28;20039;-78
2021/01/18 05:25:23;;;;;;;30.52;21.35;;;6.70;99.90;;;;;;2104792;28;20046;-77
2021/01/18 05:26:27;;;;;;;29.50;21.00;;;6.70;99.90;;;;;;2108149;28;20023;-78
2021/01/18 05:27:27;;;;;;;29.60;20.50;;;6.70;99.90;;;;;;2112349;28;20432;-78
2021/01/18 05:28:28;;;;;;;37.80;21.52;;;6.70;99.90;;;;;;2113088;28;20051;-78
2021/01/18 05:29:30;;;;;;;33.42;21.23;;;6.70;99.90;;;;;;2112866;28;20717;-78
2021/01/18 05:30:35;;;;;;;33.05;22.00;;;6.70;99.90;;;;;;2104863;28;20185;-78
2021/01/18 05:31:39;;;;;;;30.65;21.33;;;6.70;99.90;;;;;;2104316;28;20031;-77